createdAt,value
2017-02-10T00:01:06.683Z,15.88
2017-02-10T00:02:17.406Z,15.85
2017-02-10T00:03:26.939Z,15.9
2017-02-10T00:04:37.659Z,15.9
2017-02-10T00:05:48.379Z,15.84
2017-02-10T00:06:58.945Z,15.76
2017-02-10T00:08:09.252Z,15.7
2017-02-10T00:09:19.569Z,15.55
2017-02-10T00:10:29.886Z,15.51
2017-02-10T00:11:40.613Z,15.6
2017-02-10T00:12:51.578Z,15.65
2017-02-10T00:14:02.285Z,15.73
2017-02-10T00:15:12.601Z,15.76
2017-02-10T00:16:23.323Z,15.8
2017-02-10T00:17:33.643Z,15.73
2017-02-10T00:18:43.867Z,15.76
2017-02-10T00:19:54.187Z,15.76
2017-02-10T00:21:04.109Z,15.69
2017-02-10T00:22:14.826Z,15.75
2017-02-10T00:23:24.750Z,15.72
2017-02-10T00:24:35.745Z,15.73
2017-02-10T00:25:46.455Z,15.75
2017-02-10T00:26:56.780Z,15.75
2017-02-10T00:28:07.093Z,15.78
2017-02-10T00:29:17.405Z,15.76
2017-02-10T00:30:28.410Z,15.78
2017-02-10T00:31:38.727Z,15.76
2017-02-10T00:32:49.044Z,15.73
2017-02-10T00:33:58.959Z,15.76
2017-02-10T00:35:08.478Z,15.72
2017-02-10T00:36:19.524Z,15.69
2017-02-10T00:37:29.836Z,15.8
2017-02-10T00:38:40.151Z,15.76
2017-02-10T00:39:50.859Z,15.76
2017-02-10T00:41:01.188Z,15.78
2017-02-10T00:42:11.391Z,15.73
2017-02-10T00:43:21.320Z,15.63
2017-02-10T00:44:31.230Z,15.65
2017-02-10T00:45:40.766Z,15.7
2017-02-10T00:46:51.464Z,15.73
2017-02-10T00:48:02.029Z,15.78
2017-02-10T00:49:12.734Z,15.76
2017-02-10T00:50:23.440Z,15.83
2017-02-10T00:51:33.367Z,15.84
2017-02-10T00:52:43.278Z,15.76
2017-02-10T00:53:54.283Z,15.87
2017-02-10T00:55:04.210Z,15.7
2017-02-10T00:56:14.521Z,15.65
2017-02-10T00:57:24.826Z,15.65
2017-02-10T00:58:34.746Z,15.7
2017-02-10T00:59:45.798Z,15.85
2017-02-10T01:00:56.120Z,15.75
2017-02-10T01:02:06.445Z,15.78
2017-02-10T01:03:16.359Z,15.8
2017-02-10T01:04:27.063Z,15.75
2017-02-10T01:05:37.276Z,15.59
2017-02-10T01:06:47.591Z,15.57
2017-02-10T01:07:58.292Z,15.6
2017-02-10T01:09:08.612Z,15.67
2017-02-10T01:10:18.538Z,15.63
2017-02-10T01:11:28.712Z,15.67
2017-02-10T01:12:39.459Z,15.7
2017-02-10T01:13:50.167Z,15.59
2017-02-10T01:15:00.471Z,15.59
2017-02-10T01:16:09.992Z,15.69
2017-02-10T01:17:20.221Z,15.62
2017-02-10T01:18:30.929Z,15.8
2017-02-10T01:19:41.252Z,15.78
2017-02-10T01:20:52.174Z,15.83
2017-02-10T01:22:02.894Z,15.73
2017-02-10T01:23:13.467Z,15.67
2017-02-10T01:24:24.171Z,15.75
2017-02-10T01:25:34.091Z,15.81
2017-02-10T01:26:44.007Z,15.76
2017-02-10T01:27:54.717Z,15.76
2017-02-10T01:29:05.285Z,15.81
2017-02-10T01:30:15.588Z,15.75
2017-02-10T01:31:26.292Z,15.84
2017-02-10T01:32:37.007Z,15.8
2017-02-10T01:33:47.319Z,15.76
2017-02-10T01:34:57.485Z,15.78
2017-02-10T01:36:07.799Z,15.78
2017-02-10T01:37:17.713Z,15.75
2017-02-10T01:38:27.252Z,15.76
2017-02-10T01:39:37.979Z,15.76
2017-02-10T01:40:48.144Z,15.83
2017-02-10T01:41:58.058Z,15.72
2017-02-10T01:43:08.368Z,15.88
2017-02-10T01:44:19.069Z,15.76
2017-02-10T01:45:29.392Z,15.8
2017-02-10T01:46:40.343Z,15.83
2017-02-10T01:47:51.056Z,15.8
2017-02-10T01:49:01.576Z,15.76
2017-02-10T01:50:11.515Z,15.76
2017-02-10T01:51:22.231Z,15.75
2017-02-10T01:52:32.795Z,15.72
2017-02-10T01:53:42.726Z,15.76
2017-02-10T01:54:53.037Z,15.75
2017-02-10T01:56:02.954Z,15.76
2017-02-10T01:57:13.261Z,15.75
2017-02-10T01:58:23.498Z,15.73
2017-02-10T01:59:34.206Z,15.73
2017-02-10T02:00:44.753Z,15.8
2017-02-10T02:01:55.456Z,15.62
2017-02-10T02:03:06.173Z,15.65
2017-02-10T02:04:17.171Z,15.7
2017-02-10T02:05:27.088Z,15.75
2017-02-10T02:06:37.002Z,15.75
2017-02-10T02:07:46.915Z,15.81
2017-02-10T02:08:57.630Z,15.76
2017-02-10T02:10:08.247Z,15.78
2017-02-10T02:11:18.971Z,15.78
2017-02-10T02:12:28.891Z,15.75
2017-02-10T02:13:39.588Z,15.78
2017-02-10T02:14:50.295Z,15.75
2017-02-10T02:16:00.913Z,15.75
2017-02-10T02:17:10.826Z,15.76
2017-02-10T02:18:20.752Z,15.72
2017-02-10T02:19:31.459Z,15.75
2017-02-10T02:20:42.161Z,15.76
2017-02-10T02:21:53.162Z,15.75
2017-02-10T02:23:03.107Z,15.81
2017-02-10T02:24:13.022Z,15.73
2017-02-10T02:25:22.944Z,15.75
2017-02-10T02:26:33.261Z,15.81
2017-02-10T02:27:43.873Z,15.78
2017-02-10T02:28:54.583Z,15.73
2017-02-10T02:30:04.900Z,15.67
2017-02-10T02:31:15.223Z,15.76
2017-02-10T02:32:25.539Z,15.69
2017-02-10T02:33:36.163Z,15.66
2017-02-10T02:34:46.475Z,15.63
2017-02-10T02:35:56.781Z,15.63
2017-02-10T02:37:06.698Z,15.67
2017-02-10T02:38:17.009Z,15.66
2017-02-10T02:39:27.181Z,15.59
2017-02-10T02:40:37.092Z,15.67
2017-02-10T02:41:47.402Z,15.69
2017-02-10T02:42:58.129Z,15.75
2017-02-10T02:44:08.836Z,15.78
2017-02-10T02:45:19.438Z,15.63
2017-02-10T02:46:29.360Z,15.7
2017-02-10T02:47:40.074Z,15.73
2017-02-10T02:48:50.003Z,15.7
2017-02-10T02:50:00.708Z,15.76
2017-02-10T02:51:11.706Z,15.72
2017-02-10T02:52:21.625Z,15.72
2017-02-10T02:53:31.142Z,15.73
2017-02-10T02:54:41.082Z,15.67
2017-02-10T02:55:50.602Z,15.8
2017-02-10T02:57:01.179Z,15.75
2017-02-10T02:58:11.485Z,15.7
2017-02-10T02:59:21.790Z,15.7
2017-02-10T03:00:30.926Z,15.75
2017-02-10T03:01:41.235Z,15.67
2017-02-10T03:02:51.792Z,15.62
2017-02-10T03:04:02.090Z,15.48
2017-02-10T03:05:12.407Z,15.45
2017-02-10T03:06:22.726Z,15.54
2017-02-10T03:07:33.434Z,15.65
2017-02-10T03:08:44.000Z,15.76
2017-02-10T03:09:53.910Z,15.75
2017-02-10T03:11:04.615Z,15.8
2017-02-10T03:12:14.541Z,15.63
2017-02-10T03:13:25.236Z,15.78
2017-02-10T03:14:35.463Z,15.73
2017-02-10T03:15:45.783Z,15.69
2017-02-10T03:16:56.109Z,15.6
2017-02-10T03:18:06.813Z,15.72
2017-02-10T03:19:17.520Z,15.7
2017-02-10T03:20:28.534Z,15.7
2017-02-10T03:21:39.232Z,15.66
2017-02-10T03:22:49.150Z,15.55
2017-02-10T03:23:59.853Z,15.62
2017-02-10T03:25:10.164Z,15.65
2017-02-10T03:26:20.326Z,15.69
2017-02-10T03:27:31.028Z,15.72
2017-02-10T03:28:40.937Z,15.65
2017-02-10T03:29:51.255Z,15.69
2017-02-10T03:31:01.566Z,15.65
2017-02-10T03:32:11.791Z,15.66
2017-02-10T03:33:21.700Z,15.67
2017-02-10T03:34:32.006Z,15.65
2017-02-10T03:35:42.704Z,15.52
2017-02-10T03:36:53.414Z,15.57
2017-02-10T03:38:04.378Z,15.6
2017-02-10T03:39:14.695Z,15.65
2017-02-10T03:40:25.410Z,15.7
2017-02-10T03:41:36.122Z,15.69
2017-02-10T03:42:46.829Z,15.6
2017-02-10T03:43:57.793Z,15.5
2017-02-10T03:45:08.109Z,15.55
2017-02-10T03:46:18.048Z,15.67
2017-02-10T03:47:27.961Z,15.65
2017-02-10T03:48:38.675Z,15.69
2017-02-10T03:49:49.789Z,15.72
2017-02-10T03:51:00.503Z,15.66
2017-02-10T03:52:10.418Z,15.66
2017-02-10T03:53:20.746Z,15.62
2017-02-10T03:54:31.709Z,15.6
2017-02-10T03:55:42.279Z,15.63
2017-02-10T03:56:52.804Z,15.69
2017-02-10T03:58:03.534Z,15.52
2017-02-10T03:59:13.863Z,15.62
2017-02-10T04:00:23.789Z,15.63
2017-02-10T04:01:34.743Z,15.62
2017-02-10T04:02:45.449Z,15.57
2017-02-10T04:03:55.780Z,15.57
2017-02-10T04:05:06.489Z,15.51
2017-02-10T04:06:16.798Z,15.62
2017-02-10T04:07:27.418Z,15.51
2017-02-10T04:08:37.741Z,15.54
2017-02-10T04:09:48.479Z,15.63
2017-02-10T04:10:58.816Z,15.63
2017-02-10T04:12:09.133Z,15.59
2017-02-10T04:13:20.148Z,15.43
2017-02-10T04:14:30.857Z,15.5
2017-02-10T04:15:41.175Z,15.5
2017-02-10T04:16:51.492Z,15.47
2017-02-10T04:18:02.208Z,15.52
2017-02-10T04:19:13.223Z,15.59
2017-02-10T04:20:23.542Z,15.6
2017-02-10T04:21:33.872Z,15.5
2017-02-10T04:22:44.188Z,15.51
2017-02-10T04:23:54.891Z,15.41
2017-02-10T04:25:05.867Z,15.52
2017-02-10T04:26:15.801Z,15.57
2017-02-10T04:27:26.111Z,15.51
2017-02-10T04:28:36.422Z,15.5
2017-02-10T04:29:46.733Z,15.62
2017-02-10T04:30:57.343Z,15.69
2017-02-10T04:32:06.867Z,15.62
2017-02-10T04:33:16.778Z,15.6
2017-02-10T04:34:27.485Z,15.55
2017-02-10T04:35:37.796Z,15.62
2017-02-10T04:36:48.409Z,15.67
2017-02-10T04:37:57.930Z,15.66
2017-02-10T04:39:08.673Z,15.57
2017-02-10T04:40:18.195Z,15.51
2017-02-10T04:41:27.322Z,15.52
2017-02-10T04:42:38.287Z,15.51
2017-02-10T04:43:48.213Z,15.47
2017-02-10T04:44:58.529Z,15.55
2017-02-10T04:46:08.839Z,15.59
2017-02-10T04:47:19.552Z,15.62
2017-02-10T04:48:30.557Z,15.55
2017-02-10T04:49:40.877Z,15.6
2017-02-10T04:50:50.793Z,15.55
2017-02-10T04:52:01.102Z,15.52
2017-02-10T04:53:11.810Z,15.52
2017-02-10T04:54:22.816Z,15.48
2017-02-10T04:55:33.514Z,15.48
2017-02-10T04:56:44.227Z,15.48
2017-02-10T04:57:54.928Z,15.6
2017-02-10T04:59:05.638Z,15.48
2017-02-10T05:00:16.248Z,15.48
2017-02-10T05:01:26.563Z,15.52
2017-02-10T05:02:37.274Z,15.5
2017-02-10T05:03:47.994Z,15.54
2017-02-10T05:04:57.923Z,15.54
2017-02-10T05:06:08.531Z,15.41
2017-02-10T05:07:18.842Z,15.29
2017-02-10T05:08:28.751Z,15.3
2017-02-10T05:09:38.279Z,15.36
2017-02-10T05:10:49.003Z,15.44
2017-02-10T05:11:59.168Z,15.36
2017-02-10T05:13:09.882Z,15.5
2017-02-10T05:14:20.201Z,15.5
2017-02-10T05:15:30.913Z,15.45
2017-02-10T05:16:41.233Z,15.37
2017-02-10T05:17:51.450Z,15.22
2017-02-10T05:19:01.802Z,15.27
2017-02-10T05:20:11.720Z,15.29
2017-02-10T05:21:22.038Z,15.27
2017-02-10T05:22:32.346Z,15.37
2017-02-10T05:23:43.300Z,15.29
2017-02-10T05:24:53.613Z,15.23
2017-02-10T05:26:03.928Z,15.27
2017-02-10T05:27:14.643Z,15.26
2017-02-10T05:28:25.206Z,15.43
2017-02-10T05:29:36.170Z,15.44
2017-02-10T05:30:46.477Z,15.41
2017-02-10T05:31:56.803Z,15.33
2017-02-10T05:33:07.526Z,15.37
2017-02-10T05:34:18.240Z,15.43
2017-02-10T05:35:29.210Z,15.41
2017-02-10T05:36:39.533Z,15.33
2017-02-10T05:37:49.857Z,15.27
2017-02-10T05:39:00.173Z,15.45
2017-02-10T05:40:10.544Z,15.35
2017-02-10T05:41:20.732Z,15.29
2017-02-10T05:42:31.446Z,15.43
2017-02-10T05:43:41.379Z,15.27
2017-02-10T05:44:51.312Z,15.45
2017-02-10T05:46:02.023Z,15.33
2017-02-10T05:47:12.980Z,15.22
2017-02-10T05:48:23.692Z,15.25
2017-02-10T05:49:33.994Z,15.25
2017-02-10T05:50:44.694Z,15.29
2017-02-10T05:51:55.014Z,15.36
2017-02-10T05:53:05.572Z,15.36
2017-02-10T05:54:16.279Z,15.35
2017-02-10T05:55:26.592Z,15.35
2017-02-10T05:56:36.896Z,15.41
2017-02-10T05:57:47.606Z,15.37
2017-02-10T05:58:58.637Z,15.35
2017-02-10T06:00:08.940Z,15.5
2017-02-10T06:01:18.080Z,15.3
2017-02-10T06:02:28.013Z,15.35
2017-02-10T06:03:38.330Z,15.33
2017-02-10T06:04:48.954Z,15.3
2017-02-10T06:05:59.661Z,15.43
2017-02-10T06:07:09.230Z,15.3
2017-02-10T06:08:19.939Z,15.3
2017-02-10T06:09:30.275Z,15.18
2017-02-10T06:10:41.301Z,15.29
2017-02-10T06:11:51.232Z,15.22
2017-02-10T06:13:01.556Z,15.25
2017-02-10T06:14:12.503Z,15.37
2017-02-10T06:15:23.257Z,15.43
2017-02-10T06:16:34.275Z,15.26
2017-02-10T06:17:44.997Z,15.15
2017-02-10T06:18:55.702Z,15.19
2017-02-10T06:20:06.410Z,15.17
2017-02-10T06:21:16.735Z,15.32
2017-02-10T06:22:27.372Z,15.29
2017-02-10T06:23:38.099Z,15.3
2017-02-10T06:24:48.422Z,15.39
2017-02-10T06:25:58.735Z,15.39
2017-02-10T06:27:09.046Z,15.3
2017-02-10T06:28:20.013Z,15.5
2017-02-10T06:29:29.932Z,15.43
2017-02-10T06:30:40.261Z,15.44
2017-02-10T06:31:49.787Z,15.29
2017-02-10T06:33:00.534Z,15.36
2017-02-10T06:34:11.106Z,15.44
2017-02-10T06:35:21.823Z,15.3
2017-02-10T06:36:32.153Z,15.43
2017-02-10T06:37:42.079Z,15.39
2017-02-10T06:38:52.803Z,15.41
2017-02-10T06:40:03.379Z,15.36
2017-02-10T06:41:13.701Z,15.29
2017-02-10T06:42:23.612Z,15.33
2017-02-10T06:43:34.329Z,15.32
2017-02-10T06:44:44.248Z,15.23
2017-02-10T06:45:54.421Z,15.19
2017-02-10T06:47:04.748Z,15.15
2017-02-10T06:48:14.671Z,15.15
2017-02-10T06:49:24.601Z,15.26
2017-02-10T06:50:34.689Z,15.48
2017-02-10T06:51:45.311Z,15.33
2017-02-10T06:52:56.040Z,15.41
2017-02-10T06:54:06.361Z,15.36
2017-02-10T06:55:17.065Z,15.3
2017-02-10T06:56:27.016Z,15.35
2017-02-10T06:57:37.990Z,15.35
2017-02-10T06:58:48.732Z,15.35
2017-02-10T06:59:58.699Z,15.41
2017-02-10T07:01:09.027Z,15.51
2017-02-10T07:02:19.740Z,15.51
2017-02-10T07:03:29.567Z,15.45
2017-02-10T07:04:39.501Z,15.51
2017-02-10T07:05:49.823Z,15.52
2017-02-10T07:07:00.557Z,15.41
2017-02-10T07:08:11.324Z,15.44
2017-02-10T07:09:21.512Z,15.52
2017-02-10T07:10:31.439Z,15.5
2017-02-10T07:11:42.175Z,15.5
2017-02-10T07:12:52.558Z,15.55
2017-02-10T07:14:02.921Z,15.51
2017-02-10T07:15:13.503Z,15.48
2017-02-10T07:16:24.309Z,15.45
2017-02-10T07:17:35.042Z,15.25
2017-02-10T07:18:45.379Z,15.25
2017-02-10T07:19:55.701Z,15.32
2017-02-10T07:21:06.315Z,15.39
2017-02-10T07:22:17.024Z,15.43
2017-02-10T07:23:27.348Z,15.37
2017-02-10T07:24:38.075Z,15.41
2017-02-10T07:25:47.623Z,15.29
2017-02-10T07:26:57.822Z,15.45
2017-02-10T07:28:08.149Z,15.51
2017-02-10T07:29:18.856Z,15.51
2017-02-10T07:30:29.564Z,15.52
2017-02-10T07:31:40.277Z,15.48
2017-02-10T07:32:50.850Z,15.5
2017-02-10T07:34:00.777Z,15.55
2017-02-10T07:35:11.108Z,15.52
2017-02-10T07:36:21.669Z,15.52
2017-02-10T07:37:31.992Z,15.44
2017-02-10T07:38:43.115Z,15.59
2017-02-10T07:39:53.458Z,15.5
2017-02-10T07:41:03.791Z,15.41
2017-02-10T07:42:14.526Z,15.36
2017-02-10T07:43:25.259Z,15.43
2017-02-10T07:44:35.454Z,15.47
2017-02-10T07:45:46.215Z,15.37
2017-02-10T07:46:56.143Z,15.39
2017-02-10T07:48:06.603Z,15.37
2017-02-10T07:49:16.946Z,15.44
2017-02-10T07:50:27.529Z,15.48
2017-02-10T07:51:37.878Z,15.52
2017-02-10T07:52:48.627Z,15.63
2017-02-10T07:53:58.598Z,15.6
2017-02-10T07:55:09.349Z,15.65
2017-02-10T07:56:20.325Z,15.47
2017-02-10T07:57:30.670Z,15.45
2017-02-10T07:58:41.384Z,15.47
2017-02-10T07:59:51.327Z,15.39
2017-02-10T08:01:02.050Z,15.43
2017-02-10T08:02:12.676Z,15.51
2017-02-10T08:03:23.016Z,15.51
2017-02-10T08:04:33.343Z,15.54
2017-02-10T08:05:43.665Z,15.6
2017-02-10T08:06:54.410Z,15.44
2017-02-10T08:08:05.081Z,15.51
2017-02-10T08:09:15.807Z,15.6
2017-02-10T08:10:26.136Z,15.6
2017-02-10T08:11:36.888Z,15.72
2017-02-10T08:12:47.615Z,15.75
2017-02-10T08:13:58.181Z,15.62
2017-02-10T08:15:08.488Z,15.6
2017-02-10T08:16:18.818Z,15.54
2017-02-10T08:17:29.563Z,15.51
2017-02-10T08:18:39.919Z,15.57
2017-02-10T08:19:50.637Z,15.5
2017-02-10T08:21:01.385Z,15.59
2017-02-10T08:22:11.711Z,15.51
2017-02-10T08:23:22.492Z,15.48
2017-02-10T08:24:33.061Z,15.54
2017-02-10T08:25:43.785Z,15.67
2017-02-10T08:26:53.321Z,15.62
2017-02-10T08:28:03.644Z,15.57
2017-02-10T08:29:13.970Z,15.66
2017-02-10T08:30:24.543Z,15.7
2017-02-10T08:31:34.472Z,15.52
2017-02-10T08:32:44.801Z,15.62
2017-02-10T08:33:54.339Z,15.67
2017-02-10T08:35:04.683Z,15.66
2017-02-10T08:36:14.914Z,15.76
2017-02-10T08:37:24.831Z,15.78
2017-02-10T08:38:35.550Z,15.7
2017-02-10T08:39:46.271Z,15.73
2017-02-10T08:40:56.979Z,15.9
2017-02-10T08:42:07.563Z,16.06
2017-02-10T08:43:18.307Z,15.87
2017-02-10T08:44:29.026Z,15.76
2017-02-10T08:45:39.743Z,15.8
2017-02-10T08:46:50.074Z,15.85
2017-02-10T08:48:00.662Z,15.9
2017-02-10T08:49:10.991Z,16.08
2017-02-10T08:50:21.733Z,16.17
2017-02-10T08:51:32.072Z,15.99
2017-02-10T08:52:42.790Z,15.91
2017-02-10T08:53:53.439Z,15.84
2017-02-10T08:55:02.974Z,16.05
2017-02-10T08:56:12.903Z,16.22
2017-02-10T08:57:23.234Z,15.94
2017-02-10T08:58:33.564Z,16.03
2017-02-10T08:59:44.165Z,16
2017-02-10T09:00:54.095Z,16
2017-02-10T09:02:04.448Z,16.05
2017-02-10T09:03:14.775Z,16.12
2017-02-10T09:04:24.710Z,16.1
2017-02-10T09:05:34.895Z,16.02
2017-02-10T09:06:44.845Z,15.99
2017-02-10T09:07:55.166Z,16.03
2017-02-10T09:09:05.093Z,15.98
2017-02-10T09:10:14.624Z,16.05
2017-02-10T09:11:25.256Z,16
2017-02-10T09:12:35.960Z,16.22
2017-02-10T09:13:46.662Z,16.31
2017-02-10T09:14:56.981Z,16.18
2017-02-10T09:16:07.318Z,16.09
2017-02-10T09:17:18.040Z,16.03
2017-02-10T09:18:28.773Z,16.06
2017-02-10T09:19:39.101Z,16.09
2017-02-10T09:20:49.816Z,16.06
2017-02-10T09:22:00.829Z,16.18
2017-02-10T09:23:10.356Z,16.12
2017-02-10T09:24:20.692Z,16.1
2017-02-10T09:25:31.406Z,16.1
2017-02-10T09:26:41.736Z,16.06
2017-02-10T09:27:52.335Z,16.12
2017-02-10T09:29:02.268Z,16.26
2017-02-10T09:30:12.192Z,16.29
2017-02-10T09:31:22.526Z,16.26
2017-02-10T09:32:32.865Z,16.22
2017-02-10T09:33:43.471Z,16.12
2017-02-10T09:34:54.177Z,16.21
2017-02-10T09:36:04.511Z,16.21
2017-02-10T09:37:14.052Z,16.29
2017-02-10T09:38:24.771Z,16.22
2017-02-10T09:39:35.412Z,16.28
2017-02-10T09:40:45.739Z,16.28
2017-02-10T09:41:56.468Z,16.32
2017-02-10T09:43:06.387Z,16.43
2017-02-10T09:44:17.112Z,16.4
2017-02-10T09:45:28.090Z,16.41
2017-02-10T09:46:38.428Z,16.51
2017-02-10T09:47:48.762Z,16.5
2017-02-10T09:48:59.485Z,16.46
2017-02-10T09:50:10.213Z,16.46
2017-02-10T09:51:20.455Z,16.39
2017-02-10T09:52:31.181Z,16.41
2017-02-10T09:53:41.541Z,16.41
2017-02-10T09:54:52.263Z,16.43
2017-02-10T09:56:02.996Z,16.46
2017-02-10T09:57:13.617Z,16.41
2017-02-10T09:58:24.340Z,16.39
2017-02-10T09:59:35.736Z,16.46
2017-02-10T10:00:46.983Z,16.44
2017-02-10T10:01:57.703Z,16.54
2017-02-10T10:03:08.689Z,16.37
2017-02-10T10:04:18.624Z,16.39
2017-02-10T10:05:29.379Z,16.37
2017-02-10T10:06:40.104Z,16.37
2017-02-10T10:07:50.840Z,16.41
2017-02-10T10:09:01.454Z,16.32
2017-02-10T10:10:12.167Z,16.34
2017-02-10T10:11:22.506Z,16.41
2017-02-10T10:12:33.246Z,16.37
2017-02-10T10:13:43.998Z,16.29
2017-02-10T10:14:53.823Z,16.39
2017-02-10T10:16:03.757Z,16.34
2017-02-10T10:17:14.493Z,16.4
2017-02-10T10:18:25.218Z,16.44
2017-02-10T10:19:35.553Z,16.41
2017-02-10T10:20:46.195Z,16.47
2017-02-10T10:21:56.158Z,16.44
2017-02-10T10:23:06.885Z,16.39
2017-02-10T10:24:17.220Z,16.46
2017-02-10T10:25:27.568Z,16.41
2017-02-10T10:26:38.180Z,16.28
2017-02-10T10:27:48.515Z,16.29
2017-02-10T10:28:59.255Z,16.32
2017-02-10T10:30:09.974Z,16.31
2017-02-10T10:31:19.899Z,16.51
2017-02-10T10:32:30.903Z,16.51
2017-02-10T10:33:41.233Z,16.47
2017-02-10T10:34:51.572Z,16.43
2017-02-10T10:36:02.302Z,16.46
2017-02-10T10:37:12.631Z,16.41
2017-02-10T10:38:23.290Z,16.44
2017-02-10T10:39:33.624Z,16.32
2017-02-10T10:40:44.395Z,16.39
2017-02-10T10:41:54.402Z,16.31
2017-02-10T10:43:05.153Z,16.4
2017-02-10T10:44:16.169Z,16.29
2017-02-10T10:45:26.958Z,16.29
2017-02-10T10:46:36.884Z,16.26
2017-02-10T10:47:47.646Z,16.31
2017-02-10T10:48:58.379Z,16.32
2017-02-10T10:50:09.467Z,16.36
2017-02-10T10:51:19.861Z,16.44
2017-02-10T10:52:30.597Z,16.39
2017-02-10T10:53:40.928Z,16.4
2017-02-10T10:54:51.649Z,16.43
2017-02-10T10:56:02.287Z,16.43
2017-02-10T10:57:13.030Z,16.4
2017-02-10T10:58:23.777Z,16.36
2017-02-10T10:59:34.172Z,16.41
2017-02-10T11:00:44.939Z,16.46
2017-02-10T11:01:55.544Z,16.57
2017-02-10T11:03:06.319Z,16.37
2017-02-10T11:04:16.673Z,16.47
2017-02-10T11:05:27.407Z,16.49
2017-02-10T11:06:37.572Z,16.49
2017-02-10T11:07:48.584Z,16.41
2017-02-10T11:08:58.937Z,16.44
2017-02-10T11:10:09.680Z,16.43
2017-02-10T11:11:20.434Z,16.41
2017-02-10T11:12:31.212Z,16.46
2017-02-10T11:13:41.848Z,16.43
2017-02-10T11:14:52.574Z,16.44
2017-02-10T11:16:02.923Z,16.43
2017-02-10T11:17:13.247Z,16.5
2017-02-10T11:18:23.580Z,16.46
2017-02-10T11:19:34.633Z,16.55
2017-02-10T11:20:45.365Z,16.49
2017-02-10T11:21:56.120Z,16.59
2017-02-10T11:23:06.060Z,16.5
2017-02-10T11:24:16.411Z,16.5
2017-02-10T11:25:26.606Z,16.46
2017-02-10T11:26:37.405Z,16.64
2017-02-10T11:27:47.381Z,16.65
2017-02-10T11:28:58.113Z,16.61
2017-02-10T11:30:08.885Z,16.59
2017-02-10T11:31:19.922Z,16.5
2017-02-10T11:32:30.252Z,16.57
2017-02-10T11:33:40.575Z,16.55
2017-02-10T11:34:50.560Z,16.51
2017-02-10T11:36:01.342Z,16.47
2017-02-10T11:37:12.585Z,16.65
2017-02-10T11:38:23.577Z,16.73
2017-02-10T11:39:34.326Z,16.73
2017-02-10T11:40:45.542Z,16.49
2017-02-10T11:41:56.281Z,16.47
2017-02-10T11:43:06.866Z,16.4
2017-02-10T11:44:17.625Z,16.49
2017-02-10T11:45:27.952Z,16.57
2017-02-10T11:46:38.684Z,16.58
2017-02-10T11:47:49.041Z,16.72
2017-02-10T11:48:59.273Z,16.65
2017-02-10T11:50:10.009Z,16.73
2017-02-10T11:51:20.722Z,16.83
2017-02-10T11:52:31.459Z,16.72
2017-02-10T11:53:41.836Z,16.51
2017-02-10T11:54:52.470Z,16.51
2017-02-10T11:56:03.222Z,16.57
2017-02-10T11:57:13.960Z,16.5
2017-02-10T11:58:24.309Z,16.51
2017-02-10T11:59:35.043Z,16.44
2017-02-10T12:00:45.218Z,16.5
2017-02-10T12:01:55.552Z,16.43
2017-02-10T12:03:05.478Z,16.49
2017-02-10T12:04:15.798Z,16.61
2017-02-10T12:05:26.499Z,16.62
2017-02-10T12:06:37.516Z,16.59
2017-02-10T12:07:47.833Z,16.43
2017-02-10T12:08:57.753Z,16.49
2017-02-10T12:10:08.088Z,16.58
2017-02-10T12:11:18.003Z,16.54
2017-02-10T12:12:29.017Z,16.54
2017-02-10T12:13:39.744Z,16.57
2017-02-10T12:14:49.677Z,16.5
2017-02-10T12:16:00.016Z,16.55
2017-02-10T12:17:10.757Z,16.39
2017-02-10T12:18:20.581Z,16.57
2017-02-10T12:19:30.525Z,16.61
2017-02-10T12:20:41.263Z,16.55
2017-02-10T12:21:51.589Z,16.49
2017-02-10T12:23:02.301Z,16.5
2017-02-10T12:24:13.018Z,16.43
2017-02-10T12:25:23.334Z,16.51
2017-02-10T12:26:33.285Z,16.51
2017-02-10T12:27:44.026Z,16.47
2017-02-10T12:28:55.110Z,16.5
2017-02-10T12:30:05.824Z,16.44
2017-02-10T12:31:16.157Z,16.5
2017-02-10T12:32:26.496Z,16.43
2017-02-10T12:33:36.054Z,16.4
2017-02-10T12:34:46.391Z,16.44
2017-02-10T12:35:57.420Z,16.31
2017-02-10T12:37:08.118Z,16.41
2017-02-10T12:38:18.442Z,16.36
2017-02-10T12:39:28.755Z,16.41
2017-02-10T12:40:38.679Z,16.4
2017-02-10T12:41:48.848Z,16.46
2017-02-10T12:42:58.765Z,16.44
2017-02-10T12:44:09.094Z,16.43
2017-02-10T12:45:19.425Z,16.4
2017-02-10T12:46:29.739Z,16.44
2017-02-10T12:47:40.356Z,16.39
2017-02-10T12:48:50.307Z,16.51
2017-02-10T12:50:01.023Z,16.43
2017-02-10T12:51:11.340Z,16.5
2017-02-10T12:52:22.055Z,16.43
2017-02-10T12:53:33.024Z,16.51
2017-02-10T12:54:42.553Z,16.49
2017-02-10T12:55:52.478Z,16.43
2017-02-10T12:57:02.407Z,16.43
2017-02-10T12:58:12.333Z,16.37
2017-02-10T12:59:22.971Z,16.44
2017-02-10T13:00:33.303Z,16.46
2017-02-10T13:01:44.035Z,16.41
2017-02-10T13:02:53.956Z,16.4
2017-02-10T13:04:04.282Z,16.41
2017-02-10T13:05:14.461Z,16.46
2017-02-10T13:06:25.165Z,16.41
2017-02-10T13:07:35.500Z,16.49
2017-02-10T13:08:46.208Z,16.37
2017-02-10T13:09:56.141Z,16.46
2017-02-10T13:11:07.161Z,16.5
2017-02-10T13:12:17.482Z,16.46
2017-02-10T13:13:27.816Z,16.43
2017-02-10T13:14:38.539Z,16.5
2017-02-10T13:15:49.130Z,16.41
2017-02-10T13:16:59.731Z,16.44
2017-02-10T13:18:10.061Z,16.46
2017-02-10T13:19:20.787Z,16.43
2017-02-10T13:20:30.311Z,16.49
2017-02-10T13:21:40.219Z,16.44
2017-02-10T13:22:51.162Z,16.36
2017-02-10T13:24:01.473Z,16.43
2017-02-10T13:25:12.176Z,16.32
2017-02-10T13:26:22.875Z,16.43
2017-02-10T13:27:33.175Z,16.41
2017-02-10T13:28:43.475Z,16.44
2017-02-10T13:29:53.791Z,16.54
2017-02-10T13:31:04.506Z,16.47
2017-02-10T13:32:14.411Z,16.49
2017-02-10T13:33:24.999Z,16.46
2017-02-10T13:34:35.302Z,16.39
2017-02-10T13:35:45.212Z,16.34
2017-02-10T13:36:54.724Z,16.44
2017-02-10T13:38:04.618Z,16.49
2017-02-10T13:39:15.219Z,16.49
2017-02-10T13:40:24.725Z,16.44
2017-02-10T13:41:34.617Z,16.55
2017-02-10T13:42:45.323Z,16.57
2017-02-10T13:43:55.652Z,16.64
2017-02-10T13:45:06.351Z,16.64
2017-02-10T13:46:16.635Z,16.55
2017-02-10T13:47:26.934Z,16.57
2017-02-10T13:48:37.636Z,16.47
2017-02-10T13:49:48.181Z,16.59
2017-02-10T13:50:58.078Z,16.64
2017-02-10T13:52:07.991Z,16.54
2017-02-10T13:53:17.127Z,16.55
2017-02-10T13:54:27.086Z,16.44
2017-02-10T13:55:37.673Z,16.58
2017-02-10T13:56:47.968Z,16.51
2017-02-10T13:57:57.878Z,16.49
2017-02-10T13:59:07.379Z,16.51
2017-02-10T14:00:17.687Z,16.51
2017-02-10T14:01:27.896Z,16.47
2017-02-10T14:02:38.606Z,16.51
2017-02-10T14:03:48.526Z,16.54
2017-02-10T14:04:58.425Z,16.43
2017-02-10T14:06:08.324Z,16.46
2017-02-10T14:07:18.922Z,16.44
2017-02-10T14:08:28.837Z,16.46
2017-02-10T14:09:39.144Z,16.47
2017-02-10T14:11:29.199Z,21.14
2017-02-10T14:12:49.113Z,21.69
2017-02-10T14:22:09.876Z,20.44
2017-02-10T14:23:20.468Z,17.9
2017-02-10T14:24:30.784Z,17.09
2017-02-10T14:25:41.498Z,16.68
2017-02-10T14:26:51.813Z,16.64
2017-02-10T14:28:01.341Z,16.51
2017-02-10T14:29:11.547Z,16.51
2017-02-10T14:30:21.862Z,16.64
2017-02-10T14:31:31.769Z,16.58
2017-02-10T14:32:42.455Z,16.43
2017-02-10T14:33:52.363Z,16.57
2017-02-10T14:35:02.946Z,16.59
2017-02-10T14:36:12.836Z,16.51
2017-02-10T14:37:23.146Z,16.46
2017-02-10T14:38:32.669Z,16.43
2017-02-10T14:39:42.604Z,16.49
2017-02-10T14:40:53.558Z,16.46
2017-02-10T14:42:04.272Z,16.4
2017-02-10T14:43:14.586Z,16.49
2017-02-10T14:44:24.902Z,16.41
2017-02-10T14:45:35.626Z,16.39
2017-02-10T14:46:46.595Z,16.41
2017-02-10T14:47:56.966Z,16.47
2017-02-10T14:49:07.686Z,16.43
2017-02-10T14:50:18.400Z,16.46
2017-02-10T14:51:27.926Z,16.39
2017-02-10T14:52:38.550Z,16.39
2017-02-10T14:53:49.264Z,16.41
2017-02-10T14:54:59.980Z,16.44
2017-02-10T14:56:10.314Z,16.41
2017-02-10T14:57:20.247Z,16.43
2017-02-10T14:58:30.506Z,16.51
2017-02-10T14:59:40.835Z,16.57
2017-02-10T15:00:51.164Z,16.47
2017-02-10T15:02:01.477Z,16.49
2017-02-10T15:03:12.194Z,16.5
2017-02-10T15:04:22.775Z,16.57
2017-02-10T15:05:33.108Z,16.44
2017-02-10T15:06:43.444Z,16.51
2017-02-10T15:07:54.177Z,16.49
2017-02-10T15:09:04.504Z,16.5
2017-02-10T15:10:15.892Z,16.47
2017-02-10T15:11:26.219Z,16.49
2017-02-10T15:12:36.545Z,16.39
2017-02-10T15:13:46.884Z,16.46
2017-02-10T15:14:57.227Z,16.41
2017-02-10T15:16:07.866Z,16.34
2017-02-10T15:17:17.815Z,16.44
2017-02-10T15:18:28.151Z,16.44
2017-02-10T15:19:38.893Z,16.51
2017-02-10T15:20:49.624Z,16.34